createdAt,value
2019-02-08T00:01:11.594Z,28.83
2019-02-08T00:03:39.816Z,29.93
2019-02-08T00:06:07.913Z,29.00
2019-02-08T00:08:35.966Z,24.77
2019-02-08T00:11:04.749Z,24.00
2019-02-08T00:13:32.953Z,23.73
2019-02-08T00:16:01.067Z,26.97
2019-02-08T00:18:29.138Z,29.77
2019-02-08T00:20:57.215Z,23.63
2019-02-08T00:23:27.371Z,33.30
2019-02-08T00:25:55.056Z,29.27
2019-02-08T00:28:23.771Z,24.53
2019-02-08T00:30:51.858Z,26.77
2019-02-08T00:33:19.977Z,24.33
2019-02-08T00:35:48.037Z,21.80
2019-02-08T00:38:16.114Z,23.40
2019-02-08T00:40:44.185Z,29.30
2019-02-08T00:43:12.286Z,29.60
2019-02-08T00:45:40.472Z,23.40
2019-02-08T00:48:08.531Z,23.43
2019-02-08T00:50:36.597Z,21.03
2019-02-08T00:53:04.771Z,24.87
2019-02-08T00:55:32.889Z,20.80
2019-02-08T00:58:01.383Z,27.30
2019-02-08T01:00:29.493Z,24.03
2019-02-08T01:02:57.574Z,22.93
2019-02-08T01:05:25.695Z,20.33
2019-02-08T01:07:54.199Z,18.40
2019-02-08T01:10:26.371Z,19.83
2019-02-08T01:12:54.519Z,19.13
2019-02-08T01:15:26.294Z,21.97
2019-02-08T01:17:54.545Z,24.40
2019-02-08T01:20:22.716Z,22.97
2019-02-08T01:22:51.306Z,19.60
2019-02-08T01:25:20.242Z,24.73
2019-02-08T01:27:48.701Z,26.33
2019-02-08T01:30:21.612Z,21.90
2019-02-08T01:32:49.823Z,24.90
2019-02-08T01:35:18.200Z,23.37
2019-02-08T01:37:46.374Z,22.77
2019-02-08T01:40:15.784Z,17.33
2019-02-08T01:42:43.850Z,18.13
2019-02-08T01:45:12.602Z,25.33
2019-02-08T01:47:40.675Z,17.90
2019-02-08T01:50:10.920Z,22.33
2019-02-08T01:52:38.989Z,18.23
2019-02-08T01:55:07.494Z,20.53
2019-02-08T01:57:35.690Z,23.33
2019-02-08T02:00:05.262Z,22.07
2019-02-08T02:02:33.432Z,25.43
2019-02-08T02:05:01.562Z,21.10
2019-02-08T02:07:29.666Z,20.67
2019-02-08T02:09:57.741Z,19.73
2019-02-08T02:12:25.817Z,18.43
2019-02-08T02:14:53.943Z,20.63
2019-02-08T02:17:22.085Z,21.57
2019-02-08T02:19:50.149Z,21.73
2019-02-08T02:22:18.222Z,20.63
2019-02-08T02:24:46.255Z,24.07
2019-02-08T02:27:14.348Z,22.50
2019-02-08T02:29:42.442Z,25.03
2019-02-08T02:32:10.531Z,21.23
2019-02-08T02:34:38.642Z,22.10
2019-02-08T02:37:06.786Z,21.43
2019-02-08T02:39:34.875Z,25.37
2019-02-08T02:42:03.083Z,23.47
2019-02-08T02:44:31.188Z,24.40
2019-02-08T02:46:59.282Z,22.83
2019-02-08T02:49:27.372Z,21.30
2019-02-08T02:51:55.521Z,22.23
2019-02-08T02:54:23.707Z,20.83
2019-02-08T02:56:51.779Z,22.13
2019-02-08T02:59:19.850Z,21.03
2019-02-08T03:01:47.914Z,19.57
2019-02-08T03:04:16.028Z,19.50
2019-02-08T03:06:44.094Z,19.10
2019-02-08T03:09:12.295Z,21.53
2019-02-08T03:11:40.386Z,19.87
2019-02-08T03:14:08.469Z,22.77
2019-02-08T03:16:36.536Z,21.27
2019-02-08T03:19:04.723Z,20.40
2019-02-08T03:21:32.930Z,21.77
2019-02-08T03:24:01.034Z,20.07
2019-02-08T03:26:29.604Z,17.43
2019-02-08T03:28:57.684Z,18.67
2019-02-08T03:31:25.820Z,20.70
2019-02-08T03:33:53.937Z,20.93
2019-02-08T03:36:22.008Z,17.27
2019-02-08T03:38:50.074Z,16.73
2019-02-08T03:41:18.160Z,21.87
2019-02-08T03:43:46.271Z,22.57
2019-02-08T03:46:14.381Z,20.17
2019-02-08T03:48:42.427Z,21.73
2019-02-08T03:51:10.643Z,17.83
2019-02-08T03:53:38.842Z,21.77
2019-02-08T03:56:06.922Z,19.33
2019-02-08T03:58:34.997Z,20.70
2019-02-08T04:01:07.188Z,17.93
2019-02-08T04:03:35.292Z,21.93
2019-02-08T04:06:03.988Z,21.67
2019-02-08T04:08:32.130Z,18.30
2019-02-08T04:11:00.214Z,18.70
2019-02-08T04:13:28.299Z,18.17
2019-02-08T04:15:56.459Z,17.63
2019-02-08T04:18:24.539Z,20.20
2019-02-08T04:20:52.630Z,17.63
2019-02-08T04:23:20.709Z,16.40
2019-02-08T04:25:48.793Z,17.53
2019-02-08T04:28:16.894Z,18.23
2019-02-08T04:30:44.986Z,15.77
2019-02-08T04:33:13.067Z,21.33
2019-02-08T04:35:41.149Z,17.13
2019-02-08T04:38:09.235Z,16.17
2019-02-08T04:40:37.298Z,16.93
2019-02-08T04:43:05.498Z,21.03
2019-02-08T04:45:33.602Z,21.33
2019-02-08T04:48:01.671Z,22.37
2019-02-08T04:50:29.822Z,23.67
2019-02-08T04:52:58.019Z,24.20
2019-02-08T04:55:26.166Z,22.67
2019-02-08T04:57:54.280Z,23.70
2019-02-08T05:00:23.698Z,26.13
2019-02-08T05:02:51.822Z,26.93
2019-02-08T05:05:19.887Z,22.60
2019-02-08T05:07:48.078Z,25.30
2019-02-08T05:10:17.754Z,26.97
2019-02-08T05:12:45.841Z,27.70
2019-02-08T05:15:14.248Z,28.30
2019-02-08T05:17:42.297Z,28.20
2019-02-08T05:20:11.129Z,26.87
2019-02-08T05:22:39.206Z,27.43
2019-02-08T05:25:07.473Z,28.53
2019-02-08T05:27:35.570Z,23.47
2019-02-08T05:30:05.142Z,27.23
2019-02-08T05:32:33.235Z,28.87
2019-02-08T05:35:01.350Z,30.43
2019-02-08T05:37:29.439Z,29.67
2019-02-08T05:39:57.592Z,27.87
2019-02-08T05:42:25.680Z,53.70
2019-02-08T05:44:53.673Z,30.10
2019-02-08T05:47:21.814Z,29.83
2019-02-08T05:49:49.903Z,31.23
2019-02-08T05:52:17.977Z,28.30
2019-02-08T05:54:54.118Z,31.33
2019-02-08T05:57:15.839Z,29.77
2019-02-08T05:59:43.906Z,31.43
2019-02-08T06:02:12.027Z,29.40
2019-02-08T06:04:40.094Z,31.83
2019-02-08T06:07:08.186Z,32.87
2019-02-08T06:09:36.270Z,34.97
2019-02-08T06:12:04.803Z,28.97
2019-02-08T06:14:32.909Z,32.30
2019-02-08T06:17:00.995Z,30.07
2019-02-08T06:19:29.139Z,28.30
2019-02-08T06:21:57.274Z,32.60
2019-02-08T06:24:25.475Z,26.87
2019-02-08T06:26:53.586Z,28.93
2019-02-08T06:29:21.724Z,32.67
2019-02-08T06:31:49.822Z,26.07
2019-02-08T06:34:17.931Z,27.80
2019-02-08T06:36:46.070Z,34.77
2019-02-08T06:39:14.237Z,28.73
2019-02-08T06:41:42.376Z,34.67
2019-02-08T06:44:10.602Z,37.70
2019-02-08T06:46:38.730Z,39.23
2019-02-08T06:49:06.969Z,44.00
2019-02-08T06:51:35.161Z,39.77
2019-02-08T06:54:03.343Z,37.50
2019-02-08T06:57:08.780Z,41.07
2019-02-08T07:00:10.861Z,30.27
2019-02-08T07:02:58.038Z,37.00
2019-02-08T07:05:43.995Z,35.80
2019-02-08T07:08:27.645Z,46.23
2019-02-08T07:11:14.721Z,33.70
2019-02-08T07:14:11.246Z,41.67
2019-02-08T07:16:58.294Z,38.20
2019-02-08T07:19:48.442Z,35.67
2019-02-08T07:22:50.926Z,43.87
2019-02-08T07:25:31.834Z,40.73
2019-02-08T07:28:20.273Z,35.93
2019-02-08T07:30:56.810Z,29.87
2019-02-08T07:33:43.866Z,34.93
2019-02-08T07:36:33.847Z,32.40
2019-02-08T07:39:25.119Z,31.70
2019-02-08T07:42:08.583Z,25.57
2019-02-08T07:44:57.982Z,27.33
2019-02-08T07:47:43.835Z,28.03
2019-02-08T07:50:50.215Z,26.20
2019-02-08T07:53:43.390Z,31.17
2019-02-08T07:56:25.597Z,24.33
2019-02-08T07:59:27.950Z,25.83
2019-02-08T08:02:14.422Z,29.17
2019-02-08T08:04:56.702Z,26.73
2019-02-08T08:07:42.491Z,28.07
2019-02-08T08:10:30.157Z,32.03
2019-02-08T08:13:14.067Z,25.77
2019-02-08T08:16:03.402Z,34.57
2019-02-08T08:18:57.895Z,30.77
2019-02-08T08:21:53.874Z,31.93
2019-02-08T08:24:42.081Z,32.37
2019-02-08T08:27:16.093Z,37.17
2019-02-08T08:30:03.756Z,32.53
2019-02-08T08:32:41.186Z,37.27
2019-02-08T08:35:26.693Z,33.60
2019-02-08T08:38:22.753Z,38.77
2019-02-08T08:41:15.978Z,36.53
2019-02-08T08:44:06.104Z,34.90
2019-02-08T08:47:02.394Z,40.17
2019-02-08T08:49:48.631Z,43.97
2019-02-08T08:52:38.498Z,42.13
2019-02-08T08:55:12.270Z,40.40
2019-02-08T08:57:51.886Z,37.40
2019-02-08T09:00:44.800Z,38.10
2019-02-08T09:03:50.694Z,40.83
2019-02-08T09:06:43.908Z,39.67
2019-02-08T09:09:40.237Z,38.93
2019-02-08T09:12:30.402Z,32.77
2019-02-08T09:15:20.278Z,36.10
2019-02-08T09:18:06.065Z,34.37
2019-02-08T09:20:55.966Z,30.83
2019-02-08T09:23:37.498Z,34.80
2019-02-08T09:26:36.956Z,29.83
2019-02-08T09:29:39.184Z,30.10
2019-02-08T09:32:44.388Z,33.03
2019-02-08T09:35:30.293Z,25.50
2019-02-08T09:38:17.451Z,23.60
2019-02-08T09:41:04.636Z,23.40
2019-02-08T09:43:53.065Z,22.73
2019-02-08T09:46:40.125Z,20.97
2019-02-08T09:49:25.843Z,19.83
2019-02-08T09:52:15.730Z,21.50
2019-02-08T09:55:05.607Z,20.17
2019-02-08T09:57:52.791Z,19.80
2019-02-08T10:00:55.311Z,23.40
2019-02-08T10:03:45.433Z,13.93
2019-02-08T10:06:30.701Z,13.00
2019-02-08T10:09:29.923Z,15.60
2019-02-08T10:12:17.097Z,17.97
2019-02-08T10:15:04.194Z,12.70
2019-02-08T10:17:56.230Z,15.40
2019-02-08T10:20:42.458Z,12.93
2019-02-08T10:23:29.866Z,15.83
2019-02-08T10:26:23.449Z,12.53
2019-02-08T10:29:19.426Z,10.93
2019-02-08T10:32:05.072Z,19.47
2019-02-08T10:34:50.771Z,15.37
2019-02-08T10:37:36.565Z,13.13
2019-02-08T10:40:22.419Z,13.20
2019-02-08T10:43:08.122Z,13.57
2019-02-08T10:45:53.706Z,11.47
2019-02-08T10:48:48.471Z,11.10
2019-02-08T10:51:47.834Z,13.00
2019-02-08T10:54:53.380Z,14.37
2019-02-08T10:57:39.666Z,14.00
2019-02-08T11:00:26.280Z,10.77
2019-02-08T11:03:13.406Z,11.00
2019-02-08T11:06:09.913Z,12.30
2019-02-08T11:08:55.616Z,12.00
2019-02-08T11:11:42.737Z,15.03
2019-02-08T11:14:28.608Z,10.10
2019-02-08T11:17:14.370Z,9.83
2019-02-08T11:19:41.588Z,11.23
2019-02-08T11:22:09.675Z,10.00
2019-02-08T11:24:37.742Z,9.30
2019-02-08T11:27:05.906Z,9.60
2019-02-08T11:29:33.967Z,9.60
2019-02-08T11:32:02.077Z,12.37
2019-02-08T11:34:30.190Z,12.20
2019-02-08T11:36:58.374Z,9.53
2019-02-08T11:39:26.466Z,13.97
2019-02-08T11:41:54.629Z,16.27
2019-02-08T11:44:24.231Z,9.20
2019-02-08T11:46:52.816Z,7.80
2019-02-08T11:49:20.873Z,9.37
2019-02-08T11:51:48.950Z,6.43
2019-02-08T11:54:17.707Z,7.00
2019-02-08T11:56:45.819Z,8.73
2019-02-08T11:59:13.911Z,8.90
2019-02-08T12:01:44.168Z,12.00
2019-02-08T12:04:12.918Z,10.90
2019-02-08T12:06:41.047Z,9.20
2019-02-08T12:09:13.656Z,9.90
2019-02-08T12:11:41.839Z,11.47
2019-02-08T12:14:10.025Z,14.00
2019-02-08T12:16:38.094Z,6.97
2019-02-08T12:19:06.185Z,8.47
2019-02-08T12:21:34.378Z,9.83
2019-02-08T12:24:02.466Z,8.33
2019-02-08T12:26:37.725Z,12.80
2019-02-08T12:29:02.164Z,9.60
2019-02-08T12:31:30.258Z,10.17
2019-02-08T12:33:58.318Z,6.03
2019-02-08T12:36:26.430Z,10.73
2019-02-08T12:38:54.566Z,10.07
2019-02-08T12:41:22.946Z,7.73
2019-02-08T12:43:52.694Z,9.50
2019-02-08T12:46:20.776Z,9.47
2019-02-08T12:48:49.204Z,12.30
2019-02-08T12:51:17.253Z,8.40
2019-02-08T12:53:45.325Z,11.77
2019-02-08T12:56:13.316Z,8.80
2019-02-08T12:58:41.385Z,10.50
2019-02-08T13:01:09.448Z,10.33
2019-02-08T13:03:37.518Z,12.33
2019-02-08T13:06:05.692Z,11.77
2019-02-08T13:08:34.065Z,14.17
2019-02-08T13:11:02.245Z,10.13
2019-02-08T13:13:30.289Z,8.10
2019-02-08T13:15:58.344Z,7.37
2019-02-08T13:18:26.386Z,7.77
2019-02-08T13:20:54.509Z,6.67
2019-02-08T13:23:22.569Z,7.13
2019-02-08T13:25:50.662Z,10.40
2019-02-08T13:28:18.740Z,7.67
2019-02-08T13:30:46.810Z,11.50
2019-02-08T13:33:16.448Z,5.93
2019-02-08T13:35:44.615Z,9.73
2019-02-08T13:38:12.712Z,6.70
2019-02-08T13:40:40.850Z,17.30
2019-02-08T13:43:08.926Z,4.57
2019-02-08T13:45:37.006Z,5.23
2019-02-08T13:48:05.521Z,4.93
2019-02-08T13:50:33.598Z,6.00
2019-02-08T13:53:01.694Z,4.40
2019-02-08T13:55:30.273Z,5.67
2019-02-08T13:57:58.467Z,5.50
2019-02-08T14:00:31.247Z,5.30
2019-02-08T14:02:59.457Z,5.30
2019-02-08T14:05:27.522Z,6.50
2019-02-08T14:07:55.521Z,5.97
2019-02-08T14:10:23.602Z,6.87
2019-02-08T14:12:52.381Z,4.83
2019-02-08T14:15:21.224Z,7.27
2019-02-08T14:17:49.596Z,3.60
2019-02-08T14:20:18.986Z,5.50
2019-02-08T14:22:47.187Z,3.20
2019-02-08T14:25:15.686Z,7.10
2019-02-08T14:27:43.906Z,8.83
2019-02-08T14:30:14.499Z,9.53
2019-02-08T14:32:42.573Z,5.23
2019-02-08T14:35:11.374Z,8.47
2019-02-08T14:37:39.462Z,7.30
2019-02-08T14:40:08.829Z,8.53
2019-02-08T14:42:36.965Z,5.97
2019-02-08T14:45:06.506Z,7.43
2019-02-08T14:47:34.575Z,9.30
2019-02-08T14:50:02.789Z,8.90
2019-02-08T14:52:30.886Z,12.40
2019-02-08T14:54:58.990Z,15.73
2019-02-08T14:57:27.069Z,16.23
2019-02-08T14:59:56.335Z,11.97
2019-02-08T15:02:24.398Z,10.43
2019-02-08T15:04:52.469Z,6.30
2019-02-08T15:07:20.563Z,6.73
2019-02-08T15:09:48.614Z,9.07
2019-02-08T15:12:16.713Z,5.63
2019-02-08T15:14:44.777Z,5.07
2019-02-08T15:17:12.887Z,4.07
2019-02-08T15:19:40.883Z,3.40
2019-02-08T15:22:09.052Z,2.00
2019-02-08T15:24:37.450Z,2.17
2019-02-08T15:27:05.672Z,4.50
2019-02-08T15:29:33.782Z,3.47
2019-02-08T15:32:01.951Z,1.87
2019-02-08T15:34:30.021Z,6.23
2019-02-08T15:36:58.218Z,5.10
2019-02-08T15:39:26.300Z,1.30
2019-02-08T15:41:54.507Z,3.07
2019-02-08T15:44:22.542Z,3.43
2019-02-08T15:46:50.606Z,4.53
2019-02-08T15:49:18.740Z,4.40
2019-02-08T15:51:46.817Z,5.90
2019-02-08T15:54:14.880Z,6.73
2019-02-08T15:56:42.953Z,6.57
2019-02-08T15:59:11.008Z,9.63
2019-02-08T16:01:39.143Z,2.77
2019-02-08T16:04:07.191Z,6.63
2019-02-08T16:06:35.243Z,4.90
2019-02-08T16:09:04.943Z,9.53
2019-02-08T16:11:33.089Z,6.20
2019-02-08T16:14:01.194Z,9.00
2019-02-08T16:16:29.537Z,5.27
2019-02-08T16:18:57.703Z,7.27
2019-02-08T16:21:25.923Z,7.40
2019-02-08T16:23:54.029Z,9.33
2019-02-08T16:26:22.123Z,5.50
2019-02-08T16:28:50.289Z,6.93
2019-02-08T16:31:18.384Z,7.37
2019-02-08T16:33:46.498Z,7.30
2019-02-08T16:36:14.767Z,7.57
2019-02-08T16:38:42.976Z,21.00
2019-02-08T16:41:11.179Z,11.53
2019-02-08T16:43:39.299Z,9.77
2019-02-08T16:46:07.433Z,8.13
2019-02-08T16:48:35.577Z,11.67
2019-02-08T16:51:03.736Z,15.10
2019-02-08T16:53:31.992Z,6.83
2019-02-08T16:56:00.115Z,11.87
2019-02-08T16:58:29.123Z,12.37
2019-02-08T17:00:57.451Z,10.00
2019-02-08T17:03:25.689Z,10.07
2019-02-08T17:05:53.762Z,12.70
2019-02-08T17:08:21.825Z,13.40
2019-02-08T17:10:49.835Z,10.27
2019-02-08T17:13:17.908Z,18.70
2019-02-08T17:15:46.017Z,13.07
2019-02-08T17:18:14.149Z,17.93
2019-02-08T17:20:43.740Z,14.37
2019-02-08T17:23:12.135Z,15.17
2019-02-08T17:25:40.383Z,14.37
2019-02-08T17:28:09.525Z,12.57
2019-02-08T17:30:38.161Z,17.20
2019-02-08T17:33:06.861Z,19.10
2019-02-08T17:35:35.119Z,25.00
2019-02-08T17:38:03.336Z,16.30
2019-02-08T17:40:32.464Z,18.03
2019-02-08T17:43:00.862Z,21.73
2019-02-08T17:45:29.451Z,19.60
2019-02-08T17:47:59.020Z,17.47
2019-02-08T17:50:27.267Z,18.13
2019-02-08T17:52:55.528Z,15.67
2019-02-08T17:55:24.451Z,21.07
2019-02-08T17:57:52.707Z,18.50
2019-02-08T18:00:29.057Z,17.93
2019-02-08T18:02:57.403Z,26.77
2019-02-08T18:05:25.764Z,32.93
2019-02-08T18:07:54.020Z,30.93
2019-02-08T18:10:22.469Z,32.60
2019-02-08T18:12:50.788Z,21.57
2019-02-08T18:15:20.130Z,21.00
2019-02-08T18:17:48.849Z,14.50
2019-02-08T18:20:36.551Z,17.80
2019-02-08T18:23:05.061Z,18.63
2019-02-08T18:25:33.447Z,23.77
2019-02-08T18:28:01.829Z,21.97
2019-02-08T18:30:30.130Z,27.70
2019-02-08T18:32:58.386Z,19.77
2019-02-08T18:35:26.671Z,23.97
2019-02-08T18:37:54.930Z,19.40
2019-02-08T18:40:23.205Z,16.93
2019-02-08T18:42:51.487Z,18.77
2019-02-08T18:45:21.214Z,18.30
2019-02-08T18:47:49.538Z,14.47
2019-02-08T18:50:21.764Z,15.47
2019-02-08T18:52:50.039Z,13.90
2019-02-08T18:55:18.317Z,12.87
2019-02-08T18:57:46.600Z,11.63
2019-02-08T19:00:16.408Z,9.83
2019-02-08T19:02:44.734Z,8.57
2019-02-08T19:05:13.532Z,10.93
2019-02-08T19:07:41.758Z,7.77
2019-02-08T19:10:11.426Z,14.13
2019-02-08T19:12:39.654Z,8.90
2019-02-08T19:15:08.630Z,7.77
2019-02-08T19:17:37.004Z,11.60
2019-02-08T19:20:05.705Z,8.17
2019-02-08T19:22:33.955Z,11.93
2019-02-08T19:25:02.251Z,14.40
2019-02-08T19:27:30.577Z,10.03
2019-02-08T19:29:59.017Z,13.23
2019-02-08T19:32:27.416Z,9.47
2019-02-08T19:34:56.457Z,11.87
2019-02-08T19:37:24.763Z,11.37
2019-02-08T19:39:53.082Z,8.37
2019-02-08T19:42:21.513Z,13.07
2019-02-08T19:44:49.937Z,10.63
2019-02-08T19:47:18.351Z,13.43
2019-02-08T19:49:46.810Z,8.97
2019-02-08T19:52:15.261Z,11.80
2019-02-08T19:54:43.705Z,9.17
2019-02-08T19:57:12.150Z,11.47
2019-02-08T19:59:40.569Z,12.03
2019-02-08T20:02:09.026Z,11.40
2019-02-08T20:04:37.501Z,10.63
2019-02-08T20:07:06.105Z,9.63
2019-02-08T20:09:34.532Z,7.40
2019-02-08T20:12:02.916Z,10.60
2019-02-08T20:14:31.539Z,11.27
2019-02-08T20:16:59.967Z,10.10
2019-02-08T20:19:28.288Z,13.30
2019-02-08T20:21:56.648Z,10.50
2019-02-08T20:24:24.968Z,10.67
2019-02-08T20:26:53.264Z,12.57
2019-02-08T20:29:21.525Z,13.77
2019-02-08T20:31:49.747Z,11.37
2019-02-08T20:34:18.041Z,15.03
2019-02-08T20:36:46.345Z,13.70
2019-02-08T20:39:14.770Z,14.40
2019-02-08T20:41:43.116Z,14.23
2019-02-08T20:44:11.466Z,11.40
2019-02-08T20:46:39.762Z,13.27
2019-02-08T20:49:08.006Z,8.83
2019-02-08T20:51:36.315Z,7.93
2019-02-08T20:54:04.957Z,5.87
2019-02-08T20:56:33.276Z,7.00
2019-02-08T20:59:01.472Z,7.83
2019-02-08T21:01:29.688Z,9.80
2019-02-08T21:03:57.859Z,7.10
2019-02-08T21:06:26.638Z,10.53
2019-02-08T21:08:55.002Z,8.87
2019-02-08T21:11:23.227Z,5.60
2019-02-08T21:13:51.507Z,6.03
2019-02-08T21:16:19.682Z,5.33
2019-02-08T21:18:47.919Z,5.33
2019-02-08T21:21:16.473Z,5.93
2019-02-08T21:23:44.585Z,5.97
2019-02-08T21:26:12.758Z,6.67
2019-02-08T21:28:40.856Z,7.73
2019-02-08T21:31:08.978Z,4.57
2019-02-08T21:33:37.062Z,8.67
2019-02-08T21:36:05.375Z,7.03
2019-02-08T21:38:33.598Z,7.10
2019-02-08T21:41:01.770Z,7.80
2019-02-08T21:43:29.869Z,5.73
2019-02-08T21:45:57.974Z,6.97
2019-02-08T21:48:26.037Z,8.90
2019-02-08T21:50:54.222Z,12.57
2019-02-08T21:53:22.318Z,8.07
2019-02-08T21:55:50.393Z,5.73
2019-02-08T21:58:18.466Z,5.17
2019-02-08T22:00:46.559Z,8.10
2019-02-08T22:03:14.772Z,12.20
2019-02-08T22:05:47.377Z,6.00
2019-02-08T22:08:15.524Z,8.20
2019-02-08T22:10:43.576Z,7.37
2019-02-08T22:13:12.125Z,5.50
2019-02-08T22:15:40.886Z,5.80
2019-02-08T22:18:09.041Z,6.77
2019-02-08T22:20:37.245Z,10.10
2019-02-08T22:23:05.883Z,10.70
2019-02-08T22:25:34.493Z,7.37
2019-02-08T22:28:02.601Z,6.67
2019-02-08T22:30:31.031Z,11.07
2019-02-08T22:32:59.539Z,6.60
2019-02-08T22:35:27.686Z,5.80
2019-02-08T22:37:56.081Z,7.73
2019-02-08T22:40:24.359Z,4.77
2019-02-08T22:42:52.521Z,7.00
2019-02-08T22:45:22.783Z,5.80
2019-02-08T22:47:51.432Z,5.73
2019-02-08T22:50:20.258Z,8.03
2019-02-08T22:52:49.240Z,5.30
2019-02-08T22:55:18.171Z,5.30
2019-02-08T22:57:46.349Z,10.90
2019-02-08T23:00:33.464Z,6.63
2019-02-08T23:03:02.339Z,8.53
2019-02-08T23:05:30.673Z,8.63
2019-02-08T23:07:58.724Z,4.77
2019-02-08T23:10:26.798Z,6.27
2019-02-08T23:12:54.997Z,11.57
2019-02-08T23:15:23.275Z,8.30
2019-02-08T23:17:51.589Z,5.93
2019-02-08T23:20:19.769Z,6.53
2019-02-08T23:22:47.872Z,8.90
2019-02-08T23:25:16.158Z,7.53
2019-02-08T23:27:44.172Z,10.10
2019-02-08T23:30:12.438Z,9.23
2019-02-08T23:32:40.455Z,3.17
2019-02-08T23:35:08.955Z,5.57
2019-02-08T23:37:37.019Z,4.97
2019-02-08T23:40:05.730Z,5.63
2019-02-08T23:42:33.846Z,4.53
2019-02-08T23:45:02.067Z,5.87
2019-02-08T23:47:30.122Z,3.40
2019-02-08T23:49:58.258Z,8.07
2019-02-08T23:52:26.597Z,7.20
2019-02-08T23:54:54.670Z,3.00
2019-02-08T23:57:22.738Z,5.53
2019-02-08T23:59:50.805Z,5.07
